sensor_id;sensor_type;location;lat;lon;timestamp;P1;durP1;ratioP1;P2;durP2;ratioP2
74908;SDS011;63468;52.058;4.824;2023-08-06T00:01:24;40.20;;;37.05;;
74908;SDS011;63468;52.058;4.824;2023-08-06T00:03:50;39.38;;;36.58;;
74908;SDS011;63468;52.058;4.824;2023-08-06T00:06:15;41.10;;;38.20;;
74908;SDS011;63468;52.058;4.824;2023-08-06T00:08:41;42.67;;;39.67;;
74908;SDS011;63468;52.058;4.824;2023-08-06T00:11:06;40.70;;;37.47;;
74908;SDS011;63468;52.058;4.824;2023-08-06T00:13:33;41.70;;;38.75;;
74908;SDS011;63468;52.058;4.824;2023-08-06T00:16:08;40.85;;;38.00;;
74908;SDS011;63468;52.058;4.824;2023-08-06T00:18:34;40.63;;;37.58;;
74908;SDS011;63468;52.058;4.824;2023-08-06T00:20:59;39.50;;;36.75;;
74908;SDS011;63468;52.058;4.824;2023-08-06T00:23:25;40.90;;;38.00;;
74908;SDS011;63468;52.058;4.824;2023-08-06T00:25:50;39.33;;;36.60;;
74908;SDS011;63468;52.058;4.824;2023-08-06T00:28:15;39.45;;;36.17;;
74908;SDS011;63468;52.058;4.824;2023-08-06T00:30:40;39.53;;;36.78;;
74908;SDS011;63468;52.058;4.824;2023-08-06T00:33:06;40.88;;;37.92;;
74908;SDS011;63468;52.058;4.824;2023-08-06T00:35:31;40.10;;;36.90;;
74908;SDS011;63468;52.058;4.824;2023-08-06T00:37:56;40.92;;;37.92;;
74908;SDS011;63468;52.058;4.824;2023-08-06T00:40:22;39.63;;;36.53;;
74908;SDS011;63468;52.058;4.824;2023-08-06T00:42:50;39.10;;;36.22;;
74908;SDS011;63468;52.058;4.824;2023-08-06T00:45:15;40.67;;;37.55;;
74908;SDS011;63468;52.058;4.824;2023-08-06T00:47:41;39.55;;;36.85;;
74908;SDS011;63468;52.058;4.824;2023-08-06T00:50:07;38.92;;;36.13;;
74908;SDS011;63468;52.058;4.824;2023-08-06T00:52:33;40.28;;;37.38;;
74908;SDS011;63468;52.058;4.824;2023-08-06T00:54:58;41.17;;;38.10;;
74908;SDS011;63468;52.058;4.824;2023-08-06T00:57:24;40.58;;;37.42;;
74908;SDS011;63468;52.058;4.824;2023-08-06T00:59:53;40.78;;;37.67;;
74908;SDS011;63468;52.058;4.824;2023-08-06T01:02:19;40.92;;;37.92;;
74908;SDS011;63468;52.058;4.824;2023-08-06T01:04:44;40.17;;;37.38;;
74908;SDS011;63468;52.058;4.824;2023-08-06T01:10:10;38.85;;;36.08;;
74908;SDS011;63468;52.058;4.824;2023-08-06T01:13:06;39.30;;;36.45;;
74908;SDS011;63468;52.058;4.824;2023-08-06T01:15:41;39.90;;;36.90;;
74908;SDS011;63468;52.058;4.824;2023-08-06T01:18:09;39.67;;;36.65;;
74908;SDS011;63468;52.058;4.824;2023-08-06T01:20:35;38.83;;;35.83;;
74908;SDS011;63468;52.058;4.824;2023-08-06T01:23:00;39.88;;;37.10;;
74908;SDS011;63468;52.058;4.824;2023-08-06T01:25:29;39.97;;;36.88;;
74908;SDS011;63468;52.058;4.824;2023-08-06T01:27:56;41.65;;;38.42;;
74908;SDS011;63468;52.058;4.824;2023-08-06T01:30:30;39.58;;;36.20;;
74908;SDS011;63468;52.058;4.824;2023-08-06T01:33:01;40.90;;;38.00;;
74908;SDS011;63468;52.058;4.824;2023-08-06T01:35:28;40.20;;;37.10;;
74908;SDS011;63468;52.058;4.824;2023-08-06T01:37:54;38.58;;;35.83;;
74908;SDS011;63468;52.058;4.824;2023-08-06T01:40:21;39.40;;;36.50;;
74908;SDS011;63468;52.058;4.824;2023-08-06T01:42:46;39.92;;;36.90;;
74908;SDS011;63468;52.058;4.824;2023-08-06T01:45:11;41.03;;;38.03;;
74908;SDS011;63468;52.058;4.824;2023-08-06T01:47:37;41.17;;;38.38;;
74908;SDS011;63468;52.058;4.824;2023-08-06T01:50:02;40.90;;;37.90;;
74908;SDS011;63468;52.058;4.824;2023-08-06T01:52:28;40.72;;;37.72;;
74908;SDS011;63468;52.058;4.824;2023-08-06T01:54:53;43.65;;;40.10;;
74908;SDS011;63468;52.058;4.824;2023-08-06T01:57:19;46.38;;;43.05;;
74908;SDS011;63468;52.058;4.824;2023-08-06T01:59:44;46.58;;;43.13;;
74908;SDS011;63468;52.058;4.824;2023-08-06T02:02:10;46.83;;;43.45;;
74908;SDS011;63468;52.058;4.824;2023-08-06T02:04:35;42.38;;;39.35;;
74908;SDS011;63468;52.058;4.824;2023-08-06T02:07:00;42.25;;;38.80;;
74908;SDS011;63468;52.058;4.824;2023-08-06T02:09:26;42.88;;;39.72;;
74908;SDS011;63468;52.058;4.824;2023-08-06T02:11:51;43.42;;;40.05;;
74908;SDS011;63468;52.058;4.824;2023-08-06T02:14:16;41.42;;;38.13;;
74908;SDS011;63468;52.058;4.824;2023-08-06T02:16:42;41.63;;;38.80;;
74908;SDS011;63468;52.058;4.824;2023-08-06T02:19:07;43.47;;;40.35;;
74908;SDS011;63468;52.058;4.824;2023-08-06T02:21:32;41.97;;;38.95;;
74908;SDS011;63468;52.058;4.824;2023-08-06T02:23:57;42.33;;;38.72;;
74908;SDS011;63468;52.058;4.824;2023-08-06T02:26:23;41.50;;;38.40;;
74908;SDS011;63468;52.058;4.824;2023-08-06T02:28:48;41.25;;;38.10;;
74908;SDS011;63468;52.058;4.824;2023-08-06T02:31:13;41.58;;;38.53;;
74908;SDS011;63468;52.058;4.824;2023-08-06T02:33:39;41.15;;;37.92;;
74908;SDS011;63468;52.058;4.824;2023-08-06T02:36:04;42.95;;;39.58;;
74908;SDS011;63468;52.058;4.824;2023-08-06T02:38:30;43.80;;;40.42;;
74908;SDS011;63468;52.058;4.824;2023-08-06T02:40:56;42.00;;;38.97;;
74908;SDS011;63468;52.058;4.824;2023-08-06T02:43:21;41.42;;;38.17;;
74908;SDS011;63468;52.058;4.824;2023-08-06T02:45:46;42.13;;;38.85;;
74908;SDS011;63468;52.058;4.824;2023-08-06T02:48:12;41.95;;;38.75;;
74908;SDS011;63468;52.058;4.824;2023-08-06T02:50:38;41.58;;;38.53;;
74908;SDS011;63468;52.058;4.824;2023-08-06T02:53:04;44.00;;;40.63;;
74908;SDS011;63468;52.058;4.824;2023-08-06T02:55:30;43.75;;;39.95;;
74908;SDS011;63468;52.058;4.824;2023-08-06T02:57:55;42.63;;;39.13;;
74908;SDS011;63468;52.058;4.824;2023-08-06T03:00:21;44.17;;;40.53;;
74908;SDS011;63468;52.058;4.824;2023-08-06T03:02:46;43.28;;;39.42;;
74908;SDS011;63468;52.058;4.824;2023-08-06T03:05:11;43.92;;;40.17;;
74908;SDS011;63468;52.058;4.824;2023-08-06T03:07:37;43.63;;;39.95;;
74908;SDS011;63468;52.058;4.824;2023-08-06T03:10:02;42.97;;;39.33;;
74908;SDS011;63468;52.058;4.824;2023-08-06T03:12:28;41.15;;;37.55;;
74908;SDS011;63468;52.058;4.824;2023-08-06T03:14:53;42.35;;;38.55;;
74908;SDS011;63468;52.058;4.824;2023-08-06T03:17:19;41.33;;;37.90;;
74908;SDS011;63468;52.058;4.824;2023-08-06T03:19:44;41.47;;;38.00;;
74908;SDS011;63468;52.058;4.824;2023-08-06T03:22:09;41.53;;;38.28;;
74908;SDS011;63468;52.058;4.824;2023-08-06T03:24:34;44.33;;;40.50;;
74908;SDS011;63468;52.058;4.824;2023-08-06T03:27:00;44.78;;;40.92;;
74908;SDS011;63468;52.058;4.824;2023-08-06T03:29:25;44.25;;;40.58;;
74908;SDS011;63468;52.058;4.824;2023-08-06T03:31:51;44.38;;;40.88;;
74908;SDS011;63468;52.058;4.824;2023-08-06T03:34:17;42.53;;;39.00;;
74908;SDS011;63468;52.058;4.824;2023-08-06T03:36:42;42.42;;;38.70;;
74908;SDS011;63468;52.058;4.824;2023-08-06T03:39:07;43.17;;;39.65;;
74908;SDS011;63468;52.058;4.824;2023-08-06T03:41:33;44.95;;;41.38;;
74908;SDS011;63468;52.058;4.824;2023-08-06T03:43:58;45.53;;;41.67;;
74908;SDS011;63468;52.058;4.824;2023-08-06T03:46:23;44.85;;;41.08;;
74908;SDS011;63468;52.058;4.824;2023-08-06T03:48:49;45.17;;;41.40;;
74908;SDS011;63468;52.058;4.824;2023-08-06T03:51:15;46.97;;;43.03;;
74908;SDS011;63468;52.058;4.824;2023-08-06T03:53:40;46.72;;;42.67;;
74908;SDS011;63468;52.058;4.824;2023-08-06T03:56:05;46.70;;;42.55;;
74908;SDS011;63468;52.058;4.824;2023-08-06T03:58:31;45.63;;;41.72;;
74908;SDS011;63468;52.058;4.824;2023-08-06T04:01:02;45.25;;;41.25;;
74908;SDS011;63468;52.058;4.824;2023-08-06T04:03:28;48.03;;;44.13;;
74908;SDS011;63468;52.058;4.824;2023-08-06T04:05:54;45.00;;;40.97;;
74908;SDS011;63468;52.058;4.824;2023-08-06T04:08:19;46.50;;;42.58;;
74908;SDS011;63468;52.058;4.824;2023-08-06T04:10:44;44.92;;;40.60;;
74908;SDS011;63468;52.058;4.824;2023-08-06T04:13:10;44.22;;;40.28;;
74908;SDS011;63468;52.058;4.824;2023-08-06T04:15:35;43.22;;;39.70;;
74908;SDS011;63468;52.058;4.824;2023-08-06T04:18:00;39.20;;;36.28;;
74908;SDS011;63468;52.058;4.824;2023-08-06T04:20:26;32.85;;;30.95;;
74908;SDS011;63468;52.058;4.824;2023-08-06T04:22:53;34.67;;;32.67;;
74908;SDS011;63468;52.058;4.824;2023-08-06T04:25:19;34.92;;;32.58;;
74908;SDS011;63468;52.058;4.824;2023-08-06T04:27:46;34.70;;;32.70;;
74908;SDS011;63468;52.058;4.824;2023-08-06T04:30:12;34.20;;;32.13;;
74908;SDS011;63468;52.058;4.824;2023-08-06T04:32:37;34.35;;;32.35;;
74908;SDS011;63468;52.058;4.824;2023-08-06T04:35:04;33.95;;;32.05;;
74908;SDS011;63468;52.058;4.824;2023-08-06T04:37:29;34.03;;;31.92;;
74908;SDS011;63468;52.058;4.824;2023-08-06T04:39:54;33.00;;;31.02;;
74908;SDS011;63468;52.058;4.824;2023-08-06T04:42:20;34.03;;;31.65;;
74908;SDS011;63468;52.058;4.824;2023-08-06T04:44:45;34.63;;;32.53;;
74908;SDS011;63468;52.058;4.824;2023-08-06T04:47:10;35.17;;;32.85;;
74908;SDS011;63468;52.058;4.824;2023-08-06T04:49:36;34.80;;;32.40;;
74908;SDS011;63468;52.058;4.824;2023-08-06T04:52:01;33.08;;;30.63;;
74908;SDS011;63468;52.058;4.824;2023-08-06T04:54:26;34.58;;;32.20;;
74908;SDS011;63468;52.058;4.824;2023-08-06T04:56:51;34.90;;;32.58;;
74908;SDS011;63468;52.058;4.824;2023-08-06T04:59:17;35.08;;;32.63;;
74908;SDS011;63468;52.058;4.824;2023-08-06T05:01:42;36.85;;;34.20;;
74908;SDS011;63468;52.058;4.824;2023-08-06T05:04:07;33.47;;;31.10;;
74908;SDS011;63468;52.058;4.824;2023-08-06T05:06:33;33.97;;;31.63;;
74908;SDS011;63468;52.058;4.824;2023-08-06T05:08:58;34.78;;;32.40;;
74908;SDS011;63468;52.058;4.824;2023-08-06T05:11:24;36.28;;;33.40;;
74908;SDS011;63468;52.058;4.824;2023-08-06T05:13:49;37.10;;;34.03;;
74908;SDS011;63468;52.058;4.824;2023-08-06T05:16:15;33.67;;;31.27;;
74908;SDS011;63468;52.058;4.824;2023-08-06T05:18:40;34.15;;;31.70;;
74908;SDS011;63468;52.058;4.824;2023-08-06T05:21:06;35.85;;;33.35;;
74908;SDS011;63468;52.058;4.824;2023-08-06T05:23:32;34.08;;;31.75;;
74908;SDS011;63468;52.058;4.824;2023-08-06T05:25:57;34.70;;;32.17;;
74908;SDS011;63468;52.058;4.824;2023-08-06T05:28:22;33.95;;;31.70;;
74908;SDS011;63468;52.058;4.824;2023-08-06T05:30:47;33.70;;;31.40;;
74908;SDS011;63468;52.058;4.824;2023-08-06T05:33:13;32.72;;;30.48;;
74908;SDS011;63468;52.058;4.824;2023-08-06T05:35:40;32.53;;;30.38;;
74908;SDS011;63468;52.058;4.824;2023-08-06T05:38:05;32.63;;;30.45;;
74908;SDS011;63468;52.058;4.824;2023-08-06T05:40:33;31.42;;;29.42;;
74908;SDS011;63468;52.058;4.824;2023-08-06T05:42:58;32.78;;;30.67;;
74908;SDS011;63468;52.058;4.824;2023-08-06T05:45:24;32.67;;;30.25;;
74908;SDS011;63468;52.058;4.824;2023-08-06T05:47:49;31.65;;;29.65;;
74908;SDS011;63468;52.058;4.824;2023-08-06T05:50:14;31.33;;;29.35;;
74908;SDS011;63468;52.058;4.824;2023-08-06T05:52:40;31.63;;;29.52;;
74908;SDS011;63468;52.058;4.824;2023-08-06T05:55:05;32.70;;;30.50;;
74908;SDS011;63468;52.058;4.824;2023-08-06T05:57:31;32.38;;;30.25;;
74908;SDS011;63468;52.058;4.824;2023-08-06T05:59:56;30.75;;;28.65;;
74908;SDS011;63468;52.058;4.824;2023-08-06T06:02:21;32.17;;;30.02;;
74908;SDS011;63468;52.058;4.824;2023-08-06T06:04:47;31.92;;;29.77;;
74908;SDS011;63468;52.058;4.824;2023-08-06T06:07:12;31.30;;;29.25;;
74908;SDS011;63468;52.058;4.824;2023-08-06T06:09:38;32.17;;;30.08;;
74908;SDS011;63468;52.058;4.824;2023-08-06T06:12:04;33.38;;;31.05;;
74908;SDS011;63468;52.058;4.824;2023-08-06T06:14:30;32.42;;;30.20;;
74908;SDS011;63468;52.058;4.824;2023-08-06T06:16:55;32.90;;;30.73;;
74908;SDS011;63468;52.058;4.824;2023-08-06T06:19:21;33.63;;;31.23;;
74908;SDS011;63468;52.058;4.824;2023-08-06T06:21:46;33.78;;;31.48;;
74908;SDS011;63468;52.058;4.824;2023-08-06T06:24:11;33.03;;;30.73;;
74908;SDS011;63468;52.058;4.824;2023-08-06T06:26:37;35.33;;;32.05;;
74908;SDS011;63468;52.058;4.824;2023-08-06T06:29:02;33.88;;;31.67;;
74908;SDS011;63468;52.058;4.824;2023-08-06T06:31:27;33.35;;;31.00;;
74908;SDS011;63468;52.058;4.824;2023-08-06T06:33:53;33.30;;;31.10;;
74908;SDS011;63468;52.058;4.824;2023-08-06T06:36:19;34.65;;;32.15;;
74908;SDS011;63468;52.058;4.824;2023-08-06T06:38:45;32.33;;;30.10;;
74908;SDS011;63468;52.058;4.824;2023-08-06T06:41:10;34.05;;;31.80;;
74908;SDS011;63468;52.058;4.824;2023-08-06T06:43:35;33.47;;;31.27;;
74908;SDS011;63468;52.058;4.824;2023-08-06T06:46:02;32.35;;;30.20;;
74908;SDS011;63468;52.058;4.824;2023-08-06T06:48:28;32.42;;;30.30;;
74908;SDS011;63468;52.058;4.824;2023-08-06T06:50:54;32.67;;;30.38;;
74908;SDS011;63468;52.058;4.824;2023-08-06T06:53:19;32.00;;;29.88;;
74908;SDS011;63468;52.058;4.824;2023-08-06T06:55:45;32.22;;;29.58;;
74908;SDS011;63468;52.058;4.824;2023-08-06T06:58:13;31.95;;;29.65;;
74908;SDS011;63468;52.058;4.824;2023-08-06T07:00:39;33.75;;;31.05;;
74908;SDS011;63468;52.058;4.824;2023-08-06T07:03:04;32.05;;;29.77;;
74908;SDS011;63468;52.058;4.824;2023-08-06T07:05:30;32.42;;;29.95;;
74908;SDS011;63468;52.058;4.824;2023-08-06T07:07:55;31.77;;;29.65;;
74908;SDS011;63468;52.058;4.824;2023-08-06T07:10:20;32.40;;;30.10;;
74908;SDS011;63468;52.058;4.824;2023-08-06T07:12:45;31.05;;;28.85;;
74908;SDS011;63468;52.058;4.824;2023-08-06T07:15:11;32.05;;;29.52;;
74908;SDS011;63468;52.058;4.824;2023-08-06T07:17:36;30.92;;;28.73;;
74908;SDS011;63468;52.058;4.824;2023-08-06T07:20:02;31.35;;;29.08;;
74908;SDS011;63468;52.058;4.824;2023-08-06T07:22:28;31.70;;;29.20;;
74908;SDS011;63468;52.058;4.824;2023-08-06T07:24:53;31.90;;;29.52;;
74908;SDS011;63468;52.058;4.824;2023-08-06T07:27:18;31.48;;;29.17;;
74908;SDS011;63468;52.058;4.824;2023-08-06T07:29:43;32.72;;;30.40;;
74908;SDS011;63468;52.058;4.824;2023-08-06T07:32:09;31.30;;;29.20;;
74908;SDS011;63468;52.058;4.824;2023-08-06T07:34:34;31.40;;;29.33;;
74908;SDS011;63468;52.058;4.824;2023-08-06T07:36:59;30.92;;;28.77;;
74908;SDS011;63468;52.058;4.824;2023-08-06T07:39:25;32.97;;;30.23;;
74908;SDS011;63468;52.058;4.824;2023-08-06T07:41:50;29.92;;;27.92;;
74908;SDS011;63468;52.058;4.824;2023-08-06T07:44:16;30.35;;;28.35;;
74908;SDS011;63468;52.058;4.824;2023-08-06T07:46:41;29.77;;;27.88;;
74908;SDS011;63468;52.058;4.824;2023-08-06T07:49:06;27.95;;;26.15;;
74908;SDS011;63468;52.058;4.824;2023-08-06T07:51:32;28.75;;;26.75;;
74908;SDS011;63468;52.058;4.824;2023-08-06T07:53:57;29.08;;;26.98;;
74908;SDS011;63468;52.058;4.824;2023-08-06T07:56:22;29.00;;;27.02;;
74908;SDS011;63468;52.058;4.824;2023-08-06T07:58:48;28.98;;;26.95;;
74908;SDS011;63468;52.058;4.824;2023-08-06T08:01:13;29.02;;;26.60;;
74908;SDS011;63468;52.058;4.824;2023-08-06T08:03:39;27.88;;;25.70;;
74908;SDS011;63468;52.058;4.824;2023-08-06T08:06:04;28.20;;;26.20;;
74908;SDS011;63468;52.058;4.824;2023-08-06T08:08:29;29.13;;;26.90;;
74908;SDS011;63468;52.058;4.824;2023-08-06T08:10:55;26.77;;;25.02;;
74908;SDS011;63468;52.058;4.824;2023-08-06T08:13:20;26.75;;;25.05;;
74908;SDS011;63468;52.058;4.824;2023-08-06T08:15:46;27.67;;;25.83;;
74908;SDS011;63468;52.058;4.824;2023-08-06T08:18:11;27.60;;;25.48;;
74908;SDS011;63468;52.058;4.824;2023-08-06T08:20:36;27.95;;;25.80;;
74908;SDS011;63468;52.058;4.824;2023-08-06T08:23:02;26.98;;;25.17;;
74908;SDS011;63468;52.058;4.824;2023-08-06T08:25:27;27.30;;;25.50;;
74908;SDS011;63468;52.058;4.824;2023-08-06T08:27:56;26.88;;;25.08;;
74908;SDS011;63468;52.058;4.824;2023-08-06T08:30:21;27.92;;;25.85;;
74908;SDS011;63468;52.058;4.824;2023-08-06T08:32:47;26.27;;;24.67;;
74908;SDS011;63468;52.058;4.824;2023-08-06T08:35:13;26.88;;;25.08;;
74908;SDS011;63468;52.058;4.824;2023-08-06T08:37:38;26.27;;;24.67;;
74908;SDS011;63468;52.058;4.824;2023-08-06T08:40:05;26.48;;;24.77;;
74908;SDS011;63468;52.058;4.824;2023-08-06T08:42:31;26.85;;;24.88;;
74908;SDS011;63468;52.058;4.824;2023-08-06T08:44:57;27.92;;;26.02;;
74908;SDS011;63468;52.058;4.824;2023-08-06T08:47:22;28.67;;;26.67;;
74908;SDS011;63468;52.058;4.824;2023-08-06T08:49:49;28.33;;;26.48;;
74908;SDS011;63468;52.058;4.824;2023-08-06T08:52:20;29.93;;;27.77;;
74908;SDS011;63468;52.058;4.824;2023-08-06T08:54:46;29.45;;;27.63;;
74908;SDS011;63468;52.058;4.824;2023-08-06T08:57:16;29.25;;;27.08;;
74908;SDS011;63468;52.058;4.824;2023-08-06T08:59:42;28.48;;;26.27;;
74908;SDS011;63468;52.058;4.824;2023-08-06T09:02:07;28.80;;;26.73;;
74908;SDS011;63468;52.058;4.824;2023-08-06T09:04:34;27.45;;;25.65;;
74908;SDS011;63468;52.058;4.824;2023-08-06T09:07:01;28.35;;;26.65;;
74908;SDS011;63468;52.058;4.824;2023-08-06T09:09:34;26.85;;;25.15;;
74908;SDS011;63468;52.058;4.824;2023-08-06T09:12:05;25.80;;;24.10;;
74908;SDS011;63468;52.058;4.824;2023-08-06T09:14:34;26.45;;;24.75;;
74908;SDS011;63468;52.058;4.824;2023-08-06T09:17:00;26.65;;;24.48;;
74908;SDS011;63468;52.058;4.824;2023-08-06T09:19:26;25.90;;;24.30;;
74908;SDS011;63468;52.058;4.824;2023-08-06T09:21:52;25.77;;;24.13;;
74908;SDS011;63468;52.058;4.824;2023-08-06T09:24:18;24.25;;;22.55;;
74908;SDS011;63468;52.058;4.824;2023-08-06T09:26:44;24.80;;;23.25;;
74908;SDS011;63468;52.058;4.824;2023-08-06T09:29:10;22.50;;;21.10;;
74908;SDS011;63468;52.058;4.824;2023-08-06T09:31:46;24.25;;;22.77;;
74908;SDS011;63468;52.058;4.824;2023-08-06T09:34:16;23.77;;;22.38;;
74908;SDS011;63468;52.058;4.824;2023-08-06T09:36:43;23.25;;;21.55;;
74908;SDS011;63468;52.058;4.824;2023-08-06T09:39:18;21.80;;;20.30;;
74908;SDS011;63468;52.058;4.824;2023-08-06T09:41:44;22.42;;;21.02;;
74908;SDS011;63468;52.058;4.824;2023-08-06T09:44:22;18.52;;;17.13;;
74908;SDS011;63468;52.058;4.824;2023-08-06T09:47:08;18.20;;;16.90;;
74908;SDS011;63468;52.058;4.824;2023-08-06T09:51:59;19.23;;;17.93;;
74908;SDS011;63468;52.058;4.824;2023-08-06T09:54:27;18.25;;;16.95;;
74908;SDS011;63468;52.058;4.824;2023-08-06T09:56:54;17.92;;;16.73;;
74908;SDS011;63468;52.058;4.824;2023-08-06T09:59:20;18.80;;;17.30;;
74908;SDS011;63468;52.058;4.824;2023-08-06T10:01:46;18.88;;;17.42;;
74908;SDS011;63468;52.058;4.824;2023-08-06T10:04:12;19.52;;;18.33;;
74908;SDS011;63468;52.058;4.824;2023-08-06T10:06:41;18.83;;;17.63;;
74908;SDS011;63468;52.058;4.824;2023-08-06T10:09:07;18.58;;;17.38;;
74908;SDS011;63468;52.058;4.824;2023-08-06T10:11:33;16.92;;;15.75;;
74908;SDS011;63468;52.058;4.824;2023-08-06T10:14:21;18.80;;;17.48;;
74908;SDS011;63468;52.058;4.824;2023-08-06T10:16:46;17.08;;;15.70;;
74908;SDS011;63468;52.058;4.824;2023-08-06T10:19:12;16.80;;;15.70;;
74908;SDS011;63468;52.058;4.824;2023-08-06T10:21:38;16.48;;;15.38;;
74908;SDS011;63468;52.058;4.824;2023-08-06T10:24:06;16.60;;;15.45;;
74908;SDS011;63468;52.058;4.824;2023-08-06T10:26:34;17.65;;;16.35;;
74908;SDS011;63468;52.058;4.824;2023-08-06T10:28:59;16.42;;;15.23;;
74908;SDS011;63468;52.058;4.824;2023-08-06T10:34:20;16.27;;;15.07;;
74908;SDS011;63468;52.058;4.824;2023-08-06T10:36:45;16.23;;;14.98;;
74908;SDS011;63468;52.058;4.824;2023-08-06T10:39:13;16.15;;;14.95;;
74908;SDS011;63468;52.058;4.824;2023-08-06T10:41:39;16.90;;;15.70;;
74908;SDS011;63468;52.058;4.824;2023-08-06T10:44:07;17.25;;;15.98;;
74908;SDS011;63468;52.058;4.824;2023-08-06T10:46:34;16.88;;;15.68;;
74908;SDS011;63468;52.058;4.824;2023-08-06T10:49:00;16.85;;;15.40;;
74908;SDS011;63468;52.058;4.824;2023-08-06T10:51:26;16.80;;;15.18;;
74908;SDS011;63468;52.058;4.824;2023-08-06T10:53:52;16.35;;;15.15;;
74908;SDS011;63468;52.058;4.824;2023-08-06T10:56:18;16.08;;;14.73;;
74908;SDS011;63468;52.058;4.824;2023-08-06T10:58:45;15.77;;;14.52;;
74908;SDS011;63468;52.058;4.824;2023-08-06T11:01:11;16.15;;;14.95;;
74908;SDS011;63468;52.058;4.824;2023-08-06T11:03:37;16.02;;;14.73;;
74908;SDS011;63468;52.058;4.824;2023-08-06T11:06:03;16.67;;;15.45;;
74908;SDS011;63468;52.058;4.824;2023-08-06T11:08:32;16.45;;;15.13;;
74908;SDS011;63468;52.058;4.824;2023-08-06T11:11:08;16.60;;;15.30;;
74908;SDS011;63468;52.058;4.824;2023-08-06T11:13:36;17.17;;;15.88;;
74908;SDS011;63468;52.058;4.824;2023-08-06T11:16:02;17.75;;;16.52;;
74908;SDS011;63468;52.058;4.824;2023-08-06T11:18:28;17.73;;;16.42;;
74908;SDS011;63468;52.058;4.824;2023-08-06T11:20:53;18.13;;;16.88;;
74908;SDS011;63468;52.058;4.824;2023-08-06T11:23:19;18.38;;;17.17;;
74908;SDS011;63468;52.058;4.824;2023-08-06T11:25:44;18.75;;;17.55;;
74908;SDS011;63468;52.058;4.824;2023-08-06T11:28:11;18.38;;;17.08;;
74908;SDS011;63468;52.058;4.824;2023-08-06T11:30:37;18.65;;;17.25;;
74908;SDS011;63468;52.058;4.824;2023-08-06T11:33:03;18.67;;;17.40;;
74908;SDS011;63468;52.058;4.824;2023-08-06T11:35:28;19.60;;;18.30;;
74908;SDS011;63468;52.058;4.824;2023-08-06T11:37:53;19.08;;;17.77;;
74908;SDS011;63468;52.058;4.824;2023-08-06T11:40:19;19.33;;;18.00;;
74908;SDS011;63468;52.058;4.824;2023-08-06T11:42:46;19.05;;;17.73;;
74908;SDS011;63468;52.058;4.824;2023-08-06T11:45:11;19.33;;;17.88;;
74908;SDS011;63468;52.058;4.824;2023-08-06T11:47:40;19.00;;;17.42;;
74908;SDS011;63468;52.058;4.824;2023-08-06T11:50:05;19.15;;;17.75;;
74908;SDS011;63468;52.058;4.824;2023-08-06T11:52:31;18.52;;;17.33;;
74908;SDS011;63468;52.058;4.824;2023-08-06T11:55:06;19.50;;;18.20;;
74908;SDS011;63468;52.058;4.824;2023-08-06T11:57:36;18.02;;;16.85;;
74908;SDS011;63468;52.058;4.824;2023-08-06T12:00:06;17.67;;;16.58;;
74908;SDS011;63468;52.058;4.824;2023-08-06T12:02:33;18.67;;;17.48;;
74908;SDS011;63468;52.058;4.824;2023-08-06T12:07:36;19.40;;;18.00;;
74908;SDS011;63468;52.058;4.824;2023-08-06T12:10:02;18.05;;;16.80;;
74908;SDS011;63468;52.058;4.824;2023-08-06T12:12:28;17.75;;;16.55;;
74908;SDS011;63468;52.058;4.824;2023-08-06T12:14:54;18.10;;;16.75;;
74908;SDS011;63468;52.058;4.824;2023-08-06T12:17:19;17.92;;;16.50;;
74908;SDS011;63468;52.058;4.824;2023-08-06T12:19:45;17.67;;;16.58;;
74908;SDS011;63468;52.058;4.824;2023-08-06T12:22:12;17.60;;;16.40;;
74908;SDS011;63468;52.058;4.824;2023-08-06T12:24:38;17.80;;;16.50;;
74908;SDS011;63468;52.058;4.824;2023-08-06T12:27:04;16.75;;;15.65;;
74908;SDS011;63468;52.058;4.824;2023-08-06T12:29:29;19.88;;;18.30;;
74908;SDS011;63468;52.058;4.824;2023-08-06T12:31:56;18.05;;;16.85;;
74908;SDS011;63468;52.058;4.824;2023-08-06T12:34:21;19.15;;;17.92;;
74908;SDS011;63468;52.058;4.824;2023-08-06T12:36:46;19.30;;;18.00;;
74908;SDS011;63468;52.058;4.824;2023-08-06T12:39:15;19.08;;;17.88;;
74908;SDS011;63468;52.058;4.824;2023-08-06T12:41:40;19.23;;;17.90;;
74908;SDS011;63468;52.058;4.824;2023-08-06T12:44:05;17.35;;;16.15;;
74908;SDS011;63468;52.058;4.824;2023-08-06T12:46:31;17.75;;;16.55;;
74908;SDS011;63468;52.058;4.824;2023-08-06T12:48:56;18.70;;;17.38;;
74908;SDS011;63468;52.058;4.824;2023-08-06T12:51:22;17.80;;;16.70;;
74908;SDS011;63468;52.058;4.824;2023-08-06T12:53:48;16.48;;;15.38;;
74908;SDS011;63468;52.058;4.824;2023-08-06T12:56:13;16.15;;;14.95;;
74908;SDS011;63468;52.058;4.824;2023-08-06T12:58:45;17.25;;;16.15;;
74908;SDS011;63468;52.058;4.824;2023-08-06T13:01:11;17.52;;;16.33;;
74908;SDS011;63468;52.058;4.824;2023-08-06T13:03:36;17.58;;;16.38;;
74908;SDS011;63468;52.058;4.824;2023-08-06T13:06:01;18.17;;;16.98;;
74908;SDS011;63468;52.058;4.824;2023-08-06T13:08:26;18.00;;;16.70;;
74908;SDS011;63468;52.058;4.824;2023-08-06T13:10:52;16.80;;;15.80;;
74908;SDS011;63468;52.058;4.824;2023-08-06T13:13:17;16.00;;;14.90;;
74908;SDS011;63468;52.058;4.824;2023-08-06T13:15:43;16.48;;;15.27;;
74908;SDS011;63468;52.058;4.824;2023-08-06T13:18:08;16.58;;;15.38;;
74908;SDS011;63468;52.058;4.824;2023-08-06T13:20:34;15.50;;;14.30;;
74908;SDS011;63468;52.058;4.824;2023-08-06T13:22:59;15.68;;;14.57;;
74908;SDS011;63468;52.058;4.824;2023-08-06T13:25:26;17.80;;;16.42;;
74908;SDS011;63468;52.058;4.824;2023-08-06T13:27:53;16.98;;;15.82;;
74908;SDS011;63468;52.058;4.824;2023-08-06T13:30:19;15.10;;;14.05;;
74908;SDS011;63468;52.058;4.824;2023-08-06T13:32:44;15.10;;;14.10;;
74908;SDS011;63468;52.058;4.824;2023-08-06T13:35:10;14.45;;;13.45;;
74908;SDS011;63468;52.058;4.824;2023-08-06T13:37:35;13.25;;;12.32;;
74908;SDS011;63468;52.058;4.824;2023-08-06T13:40:01;12.40;;;11.50;;
74908;SDS011;63468;52.058;4.824;2023-08-06T13:42:26;11.82;;;10.82;;
74908;SDS011;63468;52.058;4.824;2023-08-06T13:44:51;12.68;;;11.63;;
74908;SDS011;63468;52.058;4.824;2023-08-06T13:47:17;12.13;;;11.23;;
74908;SDS011;63468;52.058;4.824;2023-08-06T13:49:43;13.02;;;12.13;;
74908;SDS011;63468;52.058;4.824;2023-08-06T13:52:08;13.02;;;12.02;;
74908;SDS011;63468;52.058;4.824;2023-08-06T13:54:33;12.52;;;11.63;;
74908;SDS011;63468;52.058;4.824;2023-08-06T13:56:59;13.00;;;11.90;;
74908;SDS011;63468;52.058;4.824;2023-08-06T13:59:24;13.70;;;12.65;;
74908;SDS011;63468;52.058;4.824;2023-08-06T14:01:49;13.25;;;12.25;;
74908;SDS011;63468;52.058;4.824;2023-08-06T14:04:15;13.45;;;12.45;;
74908;SDS011;63468;52.058;4.824;2023-08-06T14:06:40;14.30;;;13.10;;
74908;SDS011;63468;52.058;4.824;2023-08-06T14:09:06;12.70;;;11.80;;
74908;SDS011;63468;52.058;4.824;2023-08-06T14:11:31;12.40;;;11.20;;
74908;SDS011;63468;52.058;4.824;2023-08-06T14:13:56;12.65;;;11.55;;
74908;SDS011;63468;52.058;4.824;2023-08-06T14:16:22;11.73;;;10.48;;
74908;SDS011;63468;52.058;4.824;2023-08-06T14:18:47;12.90;;;11.57;;
74908;SDS011;63468;52.058;4.824;2023-08-06T14:21:13;11.07;;;10.18;;
74908;SDS011;63468;52.058;4.824;2023-08-06T14:23:39;12.18;;;10.77;;
74908;SDS011;63468;52.058;4.824;2023-08-06T14:26:06;12.13;;;10.93;;